Terminal Aerodrome Forecast
Issued by NWS Boston, MA

Home | Current Version | Previous Version | Text Only | Print | Product List | Glossary On
Versions: 1 2 3 4 5 6 7 8 9 10 11 12 13 14 15 16 17 18 19 20 21 22
000
FTUS41 KBOX 010537
TAFBDL
TAF
KBDL 010537Z 0106/0212 00000KT P6SM FEW080
     FM011400 05005KT P6SM FEW250
     FM012100 11006KT P6SM SCT250
     FM012300 13007KT P6SM SCT050=

USA.gov is the U.S. government's official web portal to all federal, state and local government web resources and services.